Time;durP1;ratioP1;P1;durP2;ratioP2;P2;SDS_P1;SDS_P2;PMS_P1;PMS_P2;Temp;Humidity;BMP_temperature;BMP_pressure;BME280_temperature;BME280_humidity;BME280_pressure;Samples;Min_cycle;Max_cycle;Signal;HPM_P1;HPM_P2
2024/03/31 00:01:19;;;;;;;22.27;11.23;;;13.20;93.80;;;;;;4179317;28;20095;-59
2024/03/31 00:03:20;;;;;;;16.20;8.33;;;13.20;93.90;;;;;;4178244;28;20094;-58
2024/03/31 00:05:22;;;;;;;15.93;9.07;;;13.20;94.10;;;;;;4179836;28;20032;-58
2024/03/31 00:07:23;;;;;;;16.80;9.63;;;13.10;94.10;;;;;;4179001;28;20542;-58
2024/03/31 00:09:24;;;;;;;16.57;7.80;;;13.10;94.20;;;;;;4178995;28;20053;-59
2024/03/31 00:11:26;;;;;;;12.57;7.03;;;13.00;94.40;;;;;;4178764;28;20037;-58
2024/03/31 00:13:30;;;;;;;18.93;7.13;;;13.00;94.60;;;;;;4179272;28;20032;-58
2024/03/31 00:15:31;;;;;;;14.80;6.40;;;12.90;95.00;;;;;;4179014;28;20090;-55
2024/03/31 00:17:32;;;;;;;15.40;7.60;;;12.70;95.40;;;;;;4178167;28;20096;-53
2024/03/31 00:19:33;;;;;;;14.33;6.20;;;12.60;95.90;;;;;;4178714;28;20497;-53
2024/03/31 00:21:35;;;;;;;11.73;6.43;;;12.50;96.00;;;;;;4178046;28;20049;-54
2024/03/31 00:23:36;;;;;;;12.57;5.97;;;12.50;96.20;;;;;;4179468;28;20098;-56
2024/03/31 00:25:38;;;;;;;14.20;6.70;;;12.40;96.60;;;;;;4177875;28;20086;-58
2024/03/31 00:27:39;;;;;;;16.40;6.20;;;12.30;96.90;;;;;;4179032;28;20045;-58
2024/03/31 00:29:41;;;;;;;17.13;7.23;;;12.30;96.90;;;;;;4177329;28;20231;-56
2024/03/31 00:31:45;;;;;;;13.83;6.40;;;12.30;97.30;;;;;;4178295;28;20033;-57
2024/03/31 00:33:50;;;;;;;14.80;6.57;;;12.20;97.80;;;;;;4177954;28;20114;-58
2024/03/31 00:35:56;;;;;;;16.63;5.93;;;12.00;98.60;;;;;;4178825;28;20040;-57
2024/03/31 00:37:57;;;;;;;12.37;5.50;;;11.90;98.70;;;;;;4178471;28;20094;-52
2024/03/31 00:39:59;;;;;;;10.37;5.77;;;11.90;99.00;;;;;;4179303;28;20076;-57
2024/03/31 00:42:00;;;;;;;16.70;6.77;;;11.80;99.00;;;;;;4178183;28;20107;-58
2024/03/31 00:44:02;;;;;;;15.87;7.70;;;11.80;99.40;;;;;;4178950;28;20033;-57
2024/03/31 00:46:04;;;;;;;11.33;5.67;;;11.80;99.70;;;;;;4178192;28;20477;-57
2024/03/31 00:48:06;;;;;;;28.63;12.40;;;11.90;99.60;;;;;;4177939;28;20070;-59
2024/03/31 00:50:08;;;;;;;36.13;14.57;;;11.90;99.70;;;;;;4178009;28;20041;-58
2024/03/31 00:52:09;;;;;;;22.07;9.07;;;11.90;99.60;;;;;;4177635;28;20041;-56
2024/03/31 00:54:10;;;;;;;16.40;7.10;;;11.80;99.90;;;;;;4178690;28;20017;-57
2024/03/31 00:56:12;;;;;;;13.60;6.30;;;11.70;99.90;;;;;;4177542;28;20056;-57
2024/03/31 00:58:13;;;;;;;13.10;5.73;;;11.70;99.90;;;;;;4178281;28;20069;-57
2024/03/31 01:00:19;;;;;;;11.60;6.63;;;11.60;99.90;;;;;;4177450;28;20071;-55
2024/03/31 01:02:20;;;;;;;13.17;6.17;;;11.60;99.90;;;;;;4178903;28;20058;-58
2024/03/31 01:04:22;;;;;;;14.03;6.63;;;11.60;99.90;;;;;;4177101;28;20174;-56
2024/03/31 01:06:24;;;;;;;14.40;7.00;;;11.50;99.90;;;;;;4178564;28;20095;-57
2024/03/31 01:08:26;;;;;;;13.77;6.70;;;11.40;99.90;;;;;;4178025;28;20098;-57
2024/03/31 01:10:28;;;;;;;14.10;6.43;;;11.40;99.90;;;;;;4178395;28;20041;-58
2024/03/31 01:12:30;;;;;;;13.97;6.30;;;11.30;99.90;;;;;;4177326;28;20095;-58
2024/03/31 01:14:32;;;;;;;15.17;6.00;;;11.20;99.90;;;;;;4178414;28;20025;-58
2024/03/31 01:16:33;;;;;;;13.47;5.93;;;11.20;99.90;;;;;;4177180;28;20056;-55
2024/03/31 01:18:34;;;;;;;14.13;5.90;;;11.10;99.90;;;;;;4177987;28;20057;-58
2024/03/31 01:20:35;;;;;;;11.90;5.60;;;11.10;99.90;;;;;;4177377;28;20025;-57
2024/03/31 01:22:38;;;;;;;13.70;5.80;;;11.10;99.90;;;;;;4177915;28;20029;-59
2024/03/31 01:24:39;;;;;;;15.17;5.60;;;11.10;99.90;;;;;;4177909;28;20100;-57
2024/03/31 01:26:40;;;;;;;12.87;6.70;;;11.10;99.90;;;;;;4177275;28;20091;-58
2024/03/31 01:28:42;;;;;;;13.87;6.23;;;11.10;99.90;;;;;;4178237;28;20033;-56
2024/03/31 01:30:43;;;;;;;18.50;6.40;;;11.10;99.90;;;;;;4176231;28;20115;-57
2024/03/31 01:32:45;;;;;;;12.07;6.00;;;11.10;99.90;;;;;;4178364;28;20033;-54
2024/03/31 01:34:47;;;;;;;13.83;6.00;;;11.00;99.90;;;;;;4175977;28;20033;-58
2024/03/31 01:36:49;;;;;;;15.73;7.40;;;11.00;99.90;;;;;;4178313;28;20033;-57
2024/03/31 01:38:50;;;;;;;12.60;5.50;;;11.00;99.90;;;;;;4177299;28;20107;-54
2024/03/31 01:40:51;;;;;;;16.53;6.67;;;11.00;99.90;;;;;;4177338;28;20041;-54
2024/03/31 01:42:52;;;;;;;17.93;7.07;;;10.90;99.90;;;;;;4176770;28;20033;-54
2024/03/31 01:44:54;;;;;;;13.10;6.07;;;10.90;99.90;;;;;;4177435;28;20101;-57
2024/03/31 01:46:55;;;;;;;15.90;7.17;;;10.90;99.90;;;;;;4176323;28;20045;-57
2024/03/31 01:48:56;;;;;;;13.27;6.33;;;11.00;99.90;;;;;;4177417;28;20095;-57
2024/03/31 01:50:58;;;;;;;15.20;7.40;;;10.90;99.90;;;;;;4176599;28;20094;-56
2024/03/31 01:52:59;;;;;;;12.17;7.13;;;10.90;99.90;;;;;;4176630;28;20045;-57
2024/03/31 01:55:00;;;;;;;14.87;7.00;;;10.80;99.90;;;;;;4176945;28;20079;-54
2024/03/31 01:57:01;;;;;;;15.80;7.33;;;10.70;99.90;;;;;;4176515;28;20044;-58
2024/03/31 01:59:03;;;;;;;11.57;6.37;;;10.60;99.90;;;;;;4177366;28;20057;-59
2024/03/31 02:01:04;;;;;;;13.40;7.20;;;10.50;99.90;;;;;;4176572;28;20103;-57
2024/03/31 02:03:05;;;;;;;14.20;6.70;;;10.40;99.90;;;;;;4177774;28;20083;-58
2024/03/31 02:05:07;;;;;;;13.07;6.50;;;10.30;99.90;;;;;;4176616;28;20032;-54
2024/03/31 02:07:08;;;;;;;14.13;6.40;;;10.20;99.90;;;;;;4177617;28;20033;-60
2024/03/31 02:09:09;;;;;;;13.80;6.70;;;10.20;99.90;;;;;;4177062;28;20024;-58
2024/03/31 02:11:10;;;;;;;17.83;6.73;;;10.10;99.90;;;;;;4177206;28;20057;-53
2024/03/31 02:13:12;;;;;;;19.67;6.90;;;10.00;99.90;;;;;;4176551;28;20767;-59
2024/03/31 02:15:14;;;;;;;11.40;5.93;;;10.00;99.90;;;;;;4177378;28;20455;-58
2024/03/31 02:17:15;;;;;;;17.73;6.87;;;10.00;99.90;;;;;;4175938;28;20033;-59
2024/03/31 02:19:16;;;;;;;19.63;6.03;;;10.00;99.90;;;;;;4177216;28;20098;-55
2024/03/31 02:21:17;;;;;;;15.13;5.97;;;9.90;99.90;;;;;;4176708;28;20523;-58
2024/03/31 02:23:19;;;;;;;16.07;7.20;;;9.90;99.90;;;;;;4176121;28;20086;-58
2024/03/31 02:25:20;;;;;;;14.23;6.60;;;9.90;99.90;;;;;;4176578;28;20448;-55
2024/03/31 02:27:21;;;;;;;12.50;6.30;;;9.90;99.90;;;;;;4176917;28;20436;-58
2024/03/31 02:29:23;;;;;;;10.73;6.67;;;9.80;99.90;;;;;;4176389;28;20151;-58
2024/03/31 02:31:24;;;;;;;16.63;7.10;;;9.90;99.90;;;;;;4175635;28;20484;-58
2024/03/31 02:33:26;;;;;;;14.27;6.70;;;9.80;99.90;;;;;;4177317;28;20082;-55
2024/03/31 02:35:27;;;;;;;15.23;6.17;;;9.80;99.90;;;;;;4176179;28;20044;-59
2024/03/31 02:37:29;;;;;;;14.47;6.13;;;9.70;99.90;;;;;;4177298;28;20483;-58
2024/03/31 02:39:30;;;;;;;14.43;6.73;;;9.70;99.90;;;;;;4176580;28;20052;-55
2024/03/31 02:41:31;;;;;;;13.63;6.53;;;9.60;99.90;;;;;;4176826;28;20531;-58
2024/03/31 02:43:33;;;;;;;13.13;6.43;;;9.60;99.90;;;;;;4176007;28;20072;-58
2024/03/31 02:45:34;;;;;;;14.20;6.33;;;9.50;99.90;;;;;;4177481;28;20032;-58
2024/03/31 02:47:35;;;;;;;17.87;6.87;;;9.40;99.90;;;;;;4175836;28;20439;-57
2024/03/31 02:49:37;;;;;;;14.03;7.17;;;9.30;99.90;;;;;;4176901;28;20397;-56
2024/03/31 02:51:38;;;;;;;15.77;8.03;;;9.20;99.90;;;;;;4176479;28;20032;-53
2024/03/31 02:53:39;;;;;;;14.73;7.43;;;9.10;99.90;;;;;;4176541;28;20045;-55
2024/03/31 02:55:41;;;;;;;16.10;7.13;;;9.00;99.90;;;;;;4178295;28;20025;-53
2024/03/31 02:57:42;;;;;;;17.70;8.33;;;9.00;99.90;;;;;;4179660;28;21150;-56
2024/03/31 02:59:44;;;;;;;16.00;7.33;;;9.00;99.90;;;;;;4180330;28;20106;-57
2024/03/31 03:01:46;;;;;;;17.93;8.83;;;8.90;99.90;;;;;;4179592;28;20036;-53
2024/03/31 03:03:48;;;;;;;15.73;7.77;;;8.80;99.90;;;;;;4180009;28;20029;-58
2024/03/31 03:05:55;;;;;;;18.03;8.20;;;8.80;99.90;;;;;;4179494;28;20040;-57
2024/03/31 03:07:56;;;;;;;16.57;7.80;;;8.70;99.90;;;;;;4180487;28;20037;-58
2024/03/31 03:09:58;;;;;;;19.50;8.80;;;8.70;99.90;;;;;;4179543;28;20032;-52
2024/03/31 03:11:59;;;;;;;16.37;6.90;;;8.70;99.90;;;;;;4180375;28;20102;-53
2024/03/31 03:14:00;;;;;;;14.10;7.17;;;8.70;99.90;;;;;;4179598;28;20366;-57
2024/03/31 03:16:05;;;;;;;16.33;9.03;;;8.80;99.90;;;;;;4180446;28;20029;-57
2024/03/31 03:18:07;;;;;;;15.53;7.43;;;8.80;99.90;;;;;;4179264;28;20041;-57
2024/03/31 03:20:09;;;;;;;17.13;8.00;;;8.80;99.90;;;;;;4180615;28;20036;-58
2024/03/31 03:22:11;;;;;;;17.57;7.77;;;8.80;99.90;;;;;;4179226;28;20094;-58
2024/03/31 03:24:12;;;;;;;17.17;7.90;;;8.80;99.90;;;;;;4179997;28;20095;-59
2024/03/31 03:26:13;;;;;;;22.10;7.57;;;8.80;99.90;;;;;;4179064;28;20103;-58
2024/03/31 03:28:14;;;;;;;18.20;8.10;;;8.90;99.90;;;;;;4179440;28;20465;-55
2024/03/31 03:30:15;;;;;;;15.20;6.90;;;8.90;99.90;;;;;;4178825;28;20099;-57
2024/03/31 03:32:17;;;;;;;14.87;7.73;;;8.90;99.90;;;;;;4179099;28;20041;-59
2024/03/31 03:34:18;;;;;;;12.77;6.57;;;8.80;99.90;;;;;;4179184;28;20071;-57
2024/03/31 03:36:19;;;;;;;20.93;8.67;;;8.90;99.90;;;;;;4178697;28;20496;-57
2024/03/31 03:38:20;;;;;;;14.83;7.73;;;8.90;99.90;;;;;;4180648;28;20075;-57
2024/03/31 03:40:22;;;;;;;18.00;7.87;;;8.90;99.90;;;;;;4178485;28;20033;-57
2024/03/31 03:42:23;;;;;;;16.00;7.67;;;9.00;99.90;;;;;;4180208;28;20079;-59
2024/03/31 03:44:24;;;;;;;20.80;8.73;;;9.00;99.90;;;;;;4178843;28;20090;-57
2024/03/31 03:46:26;;;;;;;17.47;8.20;;;9.00;99.90;;;;;;4180201;28;20033;-56
2024/03/31 03:48:27;;;;;;;23.53;8.67;;;9.00;99.90;;;;;;4178521;28;20033;-59
2024/03/31 03:50:28;;;;;;;19.53;8.27;;;9.00;99.90;;;;;;4179176;28;20447;-56
2024/03/31 03:52:30;;;;;;;16.43;7.43;;;9.00;99.90;;;;;;4178116;28;20045;-57
2024/03/31 03:54:31;;;;;;;19.73;8.40;;;9.00;99.90;;;;;;4180000;28;20032;-56
2024/03/31 03:56:32;;;;;;;14.00;7.27;;;9.00;99.90;;;;;;4178512;28;20036;-57
2024/03/31 03:58:33;;;;;;;21.97;8.10;;;9.00;99.90;;;;;;4179333;28;20083;-58
2024/03/31 04:00:41;;;;;;;19.53;8.17;;;9.10;99.90;;;;;;4178857;28;20098;-57
2024/03/31 04:02:43;;;;;;;38.03;13.83;;;9.10;99.90;;;;;;4179099;28;20082;-55
2024/03/31 04:04:44;;;;;;;29.20;12.37;;;9.10;99.90;;;;;;4179178;28;20428;-58
2024/03/31 04:06:45;;;;;;;27.07;9.83;;;9.20;99.90;;;;;;4177937;28;20033;-57
2024/03/31 04:08:46;;;;;;;19.03;7.80;;;9.20;99.90;;;;;;4179331;28;20052;-58
2024/03/31 04:10:48;;;;;;;41.27;14.83;;;9.30;99.90;;;;;;4178143;28;20049;-58
2024/03/31 04:12:49;;;;;;;40.90;14.70;;;9.30;99.90;;;;;;4179742;28;20037;-56
2024/03/31 04:14:51;;;;;;;38.63;16.00;;;9.30;99.90;;;;;;4178621;28;20524;-57
2024/03/31 04:16:52;;;;;;;35.80;14.77;;;9.40;99.90;;;;;;4178977;28;20562;-57
2024/03/31 04:18:53;;;;;;;21.47;10.87;;;9.50;99.90;;;;;;4177931;28;20098;-58
2024/03/31 04:20:55;;;;;;;21.73;9.03;;;9.60;99.90;;;;;;4179442;28;20444;-56
2024/03/31 04:22:56;;;;;;;20.10;7.37;;;9.70;99.90;;;;;;4178104;28;20378;-58
2024/03/31 04:24:57;;;;;;;18.03;7.80;;;9.70;99.90;;;;;;4179121;28;20033;-58
2024/03/31 04:26:58;;;;;;;19.23;7.80;;;9.80;99.90;;;;;;4177993;28;20041;-58
2024/03/31 04:28:59;;;;;;;16.13;8.20;;;9.90;99.90;;;;;;4178764;28;20138;-55
2024/03/31 04:31:05;;;;;;;20.63;8.23;;;9.90;99.90;;;;;;4178376;28;20113;-56
2024/03/31 04:33:06;;;;;;;14.43;8.30;;;9.90;99.90;;;;;;4178043;28;20094;-55
2024/03/31 04:35:07;;;;;;;16.00;8.43;;;9.90;99.90;;;;;;4178493;28;20041;-57
2024/03/31 04:37:09;;;;;;;16.60;7.67;;;9.90;99.90;;;;;;4177920;28;20029;-53
2024/03/31 04:39:10;;;;;;;15.43;7.43;;;9.90;99.90;;;;;;4179342;28;20045;-55
2024/03/31 04:41:12;;;;;;;17.50;8.37;;;9.90;99.90;;;;;;4178024;28;20040;-52
2024/03/31 04:43:13;;;;;;;19.50;8.70;;;9.90;99.90;;;;;;4179198;28;20102;-58
2024/03/31 04:45:14;;;;;;;17.63;7.90;;;9.90;99.90;;;;;;4177675;28;20531;-56
2024/03/31 04:47:15;;;;;;;20.37;8.23;;;9.80;99.90;;;;;;4178842;28;20550;-55
2024/03/31 04:49:17;;;;;;;15.03;7.60;;;9.70;99.90;;;;;;4177652;28;20045;-56
2024/03/31 04:51:18;;;;;;;16.90;7.50;;;9.80;99.90;;;;;;4179052;28;20033;-56
2024/03/31 04:53:20;;;;;;;18.40;7.80;;;9.70;99.90;;;;;;4177865;28;20029;-58
2024/03/31 04:55:21;;;;;;;16.13;8.07;;;9.80;99.90;;;;;;4178995;28;20029;-58
2024/03/31 04:57:23;;;;;;;21.90;9.07;;;9.80;99.90;;;;;;4177914;28;20465;-58
2024/03/31 04:59:24;;;;;;;20.83;8.63;;;9.90;99.90;;;;;;4178685;28;20045;-58
2024/03/31 05:01:25;;;;;;;20.03;7.43;;;10.00;99.90;;;;;;4177412;28;20053;-55
2024/03/31 05:03:26;;;;;;;20.87;7.67;;;10.10;99.90;;;;;;4178299;28;20032;-57
2024/03/31 05:05:28;;;;;;;17.93;7.40;;;10.30;99.90;;;;;;4177626;28;20045;-57
2024/03/31 05:07:29;;;;;;;18.10;7.77;;;10.50;99.90;;;;;;4177940;28;20654;-57
2024/03/31 05:09:32;;;;;;;16.83;7.40;;;10.60;99.90;;;;;;4178996;28;20029;-58
2024/03/31 05:11:34;;;;;;;17.43;7.60;;;10.70;99.90;;;;;;4177539;28;20041;-56
2024/03/31 05:13:35;;;;;;;13.80;7.10;;;10.80;99.90;;;;;;4178655;28;20036;-57
2024/03/31 05:15:36;;;;;;;17.20;7.37;;;10.80;99.90;;;;;;4177153;28;20481;-57
2024/03/31 05:17:37;;;;;;;15.63;7.33;;;11.00;99.90;;;;;;4177666;28;20037;-56
2024/03/31 05:19:39;;;;;;;13.53;7.07;;;11.20;99.90;;;;;;4176206;28;20052;-57
2024/03/31 05:21:40;;;;;;;14.47;6.53;;;11.40;99.90;;;;;;4178083;28;21526;-59
2024/03/31 05:23:46;;;;;;;12.17;7.30;;;11.60;99.90;;;;;;4177242;28;20086;-55
2024/03/31 05:25:47;;;;;;;9.73;5.97;;;11.80;99.90;;;;;;4178352;28;20099;-56
2024/03/31 05:27:48;;;;;;;12.60;5.73;;;12.10;99.90;;;;;;4176919;28;20041;-56
2024/03/31 05:29:50;;;;;;;12.03;5.53;;;12.10;99.90;;;;;;4177544;28;20476;-58
2024/03/31 05:31:51;;;;;;;13.97;6.43;;;12.20;99.90;;;;;;4176638;28;20103;-55
2024/03/31 05:33:52;;;;;;;10.97;5.80;;;12.30;99.90;;;;;;4177519;28;20101;-57
2024/03/31 05:35:53;;;;;;;10.23;5.20;;;12.40;99.90;;;;;;4177526;28;20106;-59
2024/03/31 05:37:54;;;;;;;14.47;6.33;;;12.50;99.90;;;;;;4177698;28;20396;-54
2024/03/31 05:39:56;;;;;;;11.00;6.17;;;12.50;99.90;;;;;;4177687;28;20052;-55
2024/03/31 05:41:57;;;;;;;11.30;5.77;;;12.60;99.90;;;;;;4177019;28;20057;-56
2024/03/31 05:43:58;;;;;;;22.53;5.47;;;12.80;99.90;;;;;;4177624;28;20041;-56
2024/03/31 05:46:00;;;;;;;15.73;5.83;;;12.80;99.90;;;;;;4176479;28;20095;-59
2024/03/31 05:48:05;;;;;;;14.93;6.60;;;12.90;99.90;;;;;;4177826;28;20075;-57
2024/03/31 05:50:07;;;;;;;15.80;6.33;;;12.90;99.90;;;;;;4176221;28;20560;-60
2024/03/31 05:52:08;;;;;;;10.03;5.43;;;12.90;99.90;;;;;;4177615;28;20082;-56
2024/03/31 05:54:10;;;;;;;13.90;6.03;;;13.10;99.90;;;;;;4176487;28;20555;-57
2024/03/31 05:56:11;;;;;;;12.60;6.40;;;13.20;99.90;;;;;;4177283;28;20555;-57
2024/03/31 05:58:12;;;;;;;14.83;6.20;;;13.30;99.90;;;;;;4176673;28;20041;-58
2024/03/31 06:00:14;;;;;;;16.77;6.73;;;13.30;99.90;;;;;;4177393;28;20056;-53
2024/03/31 06:02:15;;;;;;;14.30;6.77;;;13.50;99.90;;;;;;4176489;28;20094;-58
2024/03/31 06:04:16;;;;;;;11.33;6.77;;;13.70;99.90;;;;;;4173109;28;20090;-59
2024/03/31 06:06:17;;;;;;;15.23;5.47;;;13.90;99.90;;;;;;4177114;28;20029;-57
2024/03/31 06:08:18;;;;;;;12.63;5.90;;;14.00;99.90;;;;;;4187750;28;20485;-59
2024/03/31 06:10:20;;;;;;;12.40;5.20;;;14.30;99.90;;;;;;4185248;28;20086;-59
2024/03/31 06:12:21;;;;;;;11.47;4.90;;;14.60;99.90;;;;;;4176254;28;20037;-58
2024/03/31 06:14:22;;;;;;;10.27;4.67;;;14.70;99.90;;;;;;4176953;28;20029;-54
2024/03/31 06:16:23;;;;;;;8.25;5.00;;;15.00;99.90;;;;;;4176394;28;20099;-55
2024/03/31 06:18:24;;;;;;;10.40;5.05;;;15.20;99.90;;;;;;4177073;28;20136;-57
2024/03/31 06:20:26;;;;;;;10.98;4.60;;;15.50;99.90;;;;;;4175917;28;20090;-56
2024/03/31 06:22:27;;;;;;;10.15;5.20;;;15.70;99.90;;;;;;4177447;28;20077;-57
2024/03/31 06:24:28;;;;;;;12.35;5.47;;;15.90;99.90;;;;;;4175892;28;20029;-56
2024/03/31 06:26:29;;;;;;;12.77;5.38;;;16.00;99.90;;;;;;4177088;28;20059;-57
2024/03/31 06:28:31;;;;;;;9.93;4.47;;;16.10;99.90;;;;;;4175988;28;20037;-58
2024/03/31 06:30:32;;;;;;;11.93;4.95;;;16.30;99.90;;;;;;4176893;28;20037;-59
2024/03/31 06:32:34;;;;;;;10.75;4.57;;;16.20;99.90;;;;;;4176066;28;20103;-58
2024/03/31 06:34:35;;;;;;;9.20;4.10;;;16.30;99.90;;;;;;4176336;28;20041;-57
2024/03/31 06:36:36;;;;;;;11.27;4.38;;;16.30;99.90;;;;;;4176172;28;20037;-59
2024/03/31 06:38:37;;;;;;;9.70;3.88;;;16.30;99.90;;;;;;4177211;28;20045;-59
2024/03/31 06:40:38;;;;;;;10.38;4.53;;;16.30;99.90;;;;;;4176850;28;20424;-58
2024/03/31 06:42:40;;;;;;;6.38;3.75;;;16.30;99.90;;;;;;4176422;28;20423;-58
2024/03/31 06:44:41;;;;;;;7.32;4.18;;;16.20;99.90;;;;;;4176679;28;20886;-57
2024/03/31 06:46:42;;;;;;;6.28;3.55;;;16.40;99.90;;;;;;4176039;28;20091;-58
2024/03/31 06:48:44;;;;;;;7.80;3.60;;;16.70;99.90;;;;;;4176532;28;20487;-55
2024/03/31 06:50:45;;;;;;;8.95;3.83;;;17.00;99.90;;;;;;4176249;28;20090;-58
2024/03/31 06:52:46;;;;;;;8.75;4.60;;;17.30;99.90;;;;;;4177247;28;20033;-59
2024/03/31 06:54:47;;;;;;;9.35;4.03;;;17.30;99.90;;;;;;4175700;28;20094;-57
2024/03/31 06:56:48;;;;;;;5.95;3.35;;;17.20;99.90;;;;;;4177499;28;20025;-56
2024/03/31 06:58:50;;;;;;;5.68;3.78;;;17.00;99.90;;;;;;4176285;28;20087;-57
2024/03/31 07:00:56;;;;;;;9.13;4.18;;;16.90;99.90;;;;;;4176886;28;20045;-58
2024/03/31 07:02:58;;;;;;;9.15;3.75;;;17.10;99.90;;;;;;4175568;28;20095;-57
2024/03/31 07:04:59;;;;;;;9.10;4.25;;;17.10;99.90;;;;;;4175734;28;20103;-58
2024/03/31 07:07:01;;;;;;;10.77;4.00;;;17.30;99.90;;;;;;4175831;28;20037;-58
2024/03/31 07:09:02;;;;;;;7.93;3.45;;;17.40;99.90;;;;;;4176743;28;20102;-59
2024/03/31 07:11:03;;;;;;;9.32;3.90;;;17.40;99.90;;;;;;4176866;28;20110;-59
2024/03/31 07:13:05;;;;;;;9.95;4.07;;;17.40;99.90;;;;;;4176911;28;20033;-59
2024/03/31 07:15:06;;;;;;;10.93;3.75;;;17.50;99.90;;;;;;4176374;28;20041;-57
2024/03/31 07:17:07;;;;;;;5.65;4.00;;;17.60;99.90;;;;;;4175472;28;20029;-59
2024/03/31 07:19:08;;;;;;;9.10;3.60;;;17.50;99.90;;;;;;4176641;28;20037;-57
2024/03/31 07:21:09;;;;;;;8.85;3.60;;;17.60;99.90;;;;;;4175370;28;20186;-57
2024/03/31 07:23:11;;;;;;;9.52;3.47;;;17.60;99.90;;;;;;4176923;28;20053;-56
2024/03/31 07:25:12;;;;;;;7.05;3.33;;;17.60;99.90;;;;;;4175492;28;20041;-57
2024/03/31 07:27:13;;;;;;;7.55;3.35;;;17.60;99.90;;;;;;4176809;28;20446;-58
2024/03/31 07:29:15;;;;;;;9.77;3.28;;;17.70;99.70;;;;;;4175264;28;20037;-59
2024/03/31 07:31:17;;;;;;;3.92;2.45;;;17.70;99.60;;;;;;4173489;28;20040;-54
2024/03/31 07:33:18;;;;;;;8.50;2.58;;;17.50;99.60;;;;;;4175627;28;20025;-56
2024/03/31 07:35:19;;;;;;;9.00;3.88;;;17.40;99.60;;;;;;4176551;28;20106;-58
2024/03/31 07:37:21;;;;;;;9.15;3.40;;;17.40;99.80;;;;;;4176111;28;20025;-59
2024/03/31 07:39:22;;;;;;;6.07;2.97;;;17.40;99.80;;;;;;4176753;28;20037;-54
2024/03/31 07:41:23;;;;;;;6.90;3.22;;;17.40;99.90;;;;;;4175966;28;20148;-59
2024/03/31 07:43:25;;;;;;;8.30;3.08;;;17.50;99.90;;;;;;4178493;28;20033;-58
2024/03/31 07:45:26;;;;;;;8.20;3.15;;;17.50;99.90;;;;;;4162383;28;20021;-57
2024/03/31 07:47:28;;;;;;;6.65;2.80;;;17.50;99.90;;;;;;4162232;28;20045;-56
2024/03/31 07:49:29;;;;;;;7.32;3.70;;;17.60;99.90;;;;;;4177236;28;20463;-60
2024/03/31 07:51:30;;;;;;;6.03;3.22;;;17.70;99.90;;;;;;4178467;28;20083;-58
2024/03/31 07:53:31;;;;;;;7.07;3.03;;;17.80;99.90;;;;;;4179196;28;20452;-56
2024/03/31 07:55:33;;;;;;;6.65;3.05;;;17.80;99.90;;;;;;4178068;28;20041;-56
2024/03/31 07:57:34;;;;;;;6.47;3.05;;;17.80;99.90;;;;;;4179470;28;20087;-58
2024/03/31 07:59:36;;;;;;;6.20;2.55;;;17.80;99.90;;;;;;4177733;28;20501;-60
2024/03/31 08:01:37;;;;;;;6.90;2.90;;;17.80;99.90;;;;;;4179050;28;20036;-59
2024/03/31 08:03:38;;;;;;;4.75;2.80;;;18.00;99.90;;;;;;4178103;28;20049;-59
2024/03/31 08:05:39;;;;;;;6.75;3.10;;;18.10;99.60;;;;;;4180390;28;20037;-57
2024/03/31 08:07:40;;;;;;;4.53;2.35;;;18.30;99.40;;;;;;4179211;28;20044;-59
2024/03/31 08:09:42;;;;;;;6.15;2.47;;;18.50;99.20;;;;;;4179329;28;20082;-60
2024/03/31 08:11:44;;;;;;;7.50;3.00;;;18.50;99.20;;;;;;4178414;28;20477;-59
2024/03/31 08:13:45;;;;;;;6.13;2.97;;;18.60;99.10;;;;;;4178571;28;20114;-60
2024/03/31 08:15:46;;;;;;;6.70;2.90;;;18.80;98.90;;;;;;4178026;28;20481;-57
2024/03/31 08:17:47;;;;;;;5.40;2.78;;;19.10;98.70;;;;;;4178777;28;20508;-60
2024/03/31 08:19:49;;;;;;;4.32;2.67;;;19.30;98.30;;;;;;4179312;28;20033;-59
2024/03/31 08:21:50;;;;;;;5.95;3.00;;;19.60;98.10;;;;;;4178072;28;20087;-59
2024/03/31 08:23:51;;;;;;;5.38;2.88;;;19.80;97.80;;;;;;4179338;28;20379;-58
2024/03/31 08:25:53;;;;;;;10.65;3.05;;;20.00;97.60;;;;;;4177968;28;20477;-60
2024/03/31 08:27:54;;;;;;;4.97;2.60;;;20.00;97.40;;;;;;4179547;28;20447;-60
2024/03/31 08:29:55;;;;;;;14.73;7.75;;;20.00;97.40;;;;;;4177495;28;20098;-58
2024/03/31 08:31:56;;;;;;;6.32;2.47;;;20.00;97.30;;;;;;4170851;28;20079;-60
2024/03/31 08:33:58;;;;;;;4.65;2.22;;;20.10;97.10;;;;;;4161416;28;20049;-59
2024/03/31 08:35:59;;;;;;;7.72;2.20;;;20.30;96.90;;;;;;4162868;28;20109;-59
2024/03/31 08:38:00;;;;;;;6.18;2.10;;;20.50;96.80;;;;;;4161829;28;20030;-59
2024/03/31 08:40:01;;;;;;;4.35;2.42;;;20.60;96.50;;;;;;4162878;28;20041;-57
2024/03/31 08:42:17;;;;;;;8.45;2.03;;;20.70;96.10;;;;;;4161943;28;20464;-54
2024/03/31 08:44:19;;;;;;;4.00;1.85;;;20.90;95.20;;;;;;4172845;28;20394;-54
2024/03/31 08:46:21;;;;;;;3.22;1.88;;;21.00;95.30;;;;;;4177646;28;20025;-59
2024/03/31 08:48:25;;;;;;;6.90;2.97;;;21.10;95.10;;;;;;4178357;28;20428;-52
2024/03/31 08:50:27;;;;;;;5.47;1.92;;;21.20;94.80;;;;;;4177291;28;20569;-60
2024/03/31 08:52:28;;;;;;;7.25;2.45;;;21.30;94.40;;;;;;4177276;28;20040;-58
2024/03/31 08:54:29;;;;;;;3.95;2.00;;;21.40;94.10;;;;;;4176967;28;20623;-58
2024/03/31 08:56:30;;;;;;;7.38;2.05;;;21.50;93.80;;;;;;4177209;28;20036;-58
2024/03/31 08:58:35;;;;;;;3.90;2.20;;;21.50;93.40;;;;;;4178770;28;20029;-59
2024/03/31 09:00:43;;;;;;;4.43;2.08;;;21.60;93.20;;;;;;4177047;28;20053;-56
2024/03/31 09:02:44;;;;;;;8.93;3.15;;;21.70;92.90;;;;;;4179074;28;20098;-59
2024/03/31 09:04:45;;;;;;;3.45;1.52;;;21.80;92.50;;;;;;4177586;28;20049;-60
2024/03/31 09:06:46;;;;;;;3.78;1.70;;;21.80;92.10;;;;;;4178587;28;20072;-58
2024/03/31 09:08:55;;;;;;;7.20;2.65;;;21.90;92.00;;;;;;4177775;28;20086;-59
2024/03/31 09:10:56;;;;;;;3.78;1.88;;;22.10;91.50;;;;;;4178323;28;20037;-54
2024/03/31 09:12:57;;;;;;;7.22;2.00;;;22.20;91.40;;;;;;4177217;28;20037;-61
2024/03/31 09:15:02;;;;;;;7.00;2.33;;;22.30;91.10;;;;;;4178033;28;20041;-58
2024/03/31 09:17:06;;;;;;;13.48;2.53;;;22.30;91.00;;;;;;4177219;28;20028;-59
2024/03/31 09:19:07;;;;;;;6.55;1.88;;;22.40;90.60;;;;;;4177858;28;20543;-61
2024/03/31 09:21:10;;;;;;;5.65;2.10;;;22.60;90.30;;;;;;4176962;28;20143;-60
2024/03/31 09:23:12;;;;;;;4.93;1.60;;;22.70;90.10;;;;;;4176477;28;20056;-57
2024/03/31 09:25:14;;;;;;;7.10;2.80;;;22.80;89.30;;;;;;4177682;28;20515;-57
2024/03/31 09:27:15;;;;;;;5.10;2.17;;;22.80;89.10;;;;;;4177359;28;20029;-60
2024/03/31 09:29:16;;;;;;;5.95;2.67;;;22.80;89.30;;;;;;4176598;28;20114;-61
2024/03/31 09:31:21;;;;;;;5.72;1.90;;;22.80;89.10;;;;;;4176467;28;20524;-58
2024/03/31 09:33:23;;;;;;;6.68;2.75;;;22.90;88.50;;;;;;4177400;28;20539;-59
2024/03/31 09:35:24;;;;;;;6.20;2.45;;;22.90;88.20;;;;;;4171188;28;20025;-58
2024/03/31 09:37:26;;;;;;;7.00;2.40;;;22.90;87.70;;;;;;4174296;28;20025;-55
2024/03/31 09:39:27;;;;;;;5.57;2.35;;;23.00;87.10;;;;;;4177868;28;20077;-60
2024/03/31 09:41:28;;;;;;;4.22;2.15;;;23.10;86.20;;;;;;4178003;28;20434;-59
2024/03/31 09:43:30;;;;;;;7.13;2.53;;;23.20;85.20;;;;;;4176430;28;20048;-59
2024/03/31 09:45:31;;;;;;;4.07;1.58;;;23.30;84.60;;;;;;4177214;28;20041;-57
2024/03/31 09:47:37;;;;;;;9.70;3.08;;;23.50;84.00;;;;;;4176930;28;20545;-59
2024/03/31 09:49:45;;;;;;;5.72;1.95;;;23.70;83.00;;;;;;4178288;28;20131;-61
2024/03/31 09:51:51;;;;;;;8.10;2.03;;;23.90;81.20;;;;;;4177087;28;20210;-61
2024/03/31 09:54:07;;;;;;;5.22;1.77;;;24.00;81.50;;;;;;4177658;28;20041;-62
2024/03/31 09:56:09;;;;;;;7.82;1.63;;;24.00;81.10;;;;;;4177064;28;20021;-60
2024/03/31 09:58:13;;;;;;;7.15;1.55;;;23.90;81.50;;;;;;4178143;28;20162;-58
2024/03/31 10:00:15;;;;;;;10.07;2.08;;;23.80;81.10;;;;;;4175540;28;20106;-60
2024/03/31 10:02:17;;;;;;;9.23;1.98;;;23.80;81.00;;;;;;4177904;28;20095;-59
2024/03/31 10:04:30;;;;;;;5.28;1.65;;;23.80;81.50;;;;;;4176433;28;20063;-60
2024/03/31 10:06:32;;;;;;;7.75;1.90;;;23.90;81.50;;;;;;4167538;28;20114;-60
2024/03/31 10:08:34;;;;;;;5.57;1.70;;;24.00;80.60;;;;;;4176872;28;20037;-61
2024/03/31 10:10:38;;;;;;;4.40;1.50;;;24.20;80.50;;;;;;4176798;28;20086;-56
2024/03/31 10:12:39;;;;;;;8.50;2.00;;;24.30;79.00;;;;;;4177357;28;20029;-61
2024/03/31 10:14:42;;;;;;;15.38;1.95;;;24.50;76.20;;;;;;4176118;28;20077;-54
2024/03/31 10:16:43;;;;;;;8.68;2.08;;;24.60;73.90;;;;;;4177751;28;20037;-60
2024/03/31 10:18:46;;;;;;;12.10;2.35;;;24.80;72.70;;;;;;4176529;28;20028;-58
2024/03/31 10:20:50;;;;;;;9.55;1.90;;;24.90;71.90;;;;;;4177491;28;20061;-61
2024/03/31 10:22:52;;;;;;;13.55;2.55;;;25.00;70.50;;;;;;4176662;28;20045;-59
2024/03/31 10:24:55;;;;;;;13.80;3.22;;;25.10;69.10;;;;;;4177286;28;20102;-61
2024/03/31 10:26:56;;;;;;;13.13;2.95;;;25.10;68.70;;;;;;4176330;28;20028;-60
2024/03/31 10:28:58;;;;;;;16.52;2.30;;;25.40;68.60;;;;;;4176817;28;20040;-60
2024/03/31 10:31:00;;;;;;;12.07;2.70;;;25.50;67.30;;;;;;4174925;28;20052;-54